sensor_id;sensor_type;location;lat;lon;timestamp;P1;durP1;ratioP1;P2;durP2;ratioP2
55641;SDS011;41509;53.108;6.100;2023-08-21T16:27:21;5.57;;;1.03;;
55641;SDS011;41509;53.108;6.100;2023-08-21T16:29:47;6.57;;;1.77;;
55641;SDS011;41509;53.108;6.100;2023-08-21T16:32:13;4.18;;;1.15;;
55641;SDS011;41509;53.108;6.100;2023-08-21T16:34:39;4.30;;;1.27;;
55641;SDS011;41509;53.108;6.100;2023-08-21T16:37:04;3.35;;;1.15;;
55641;SDS011;41509;53.108;6.100;2023-08-21T16:39:30;3.35;;;1.15;;
55641;SDS011;41509;53.108;6.100;2023-08-21T16:41:55;2.38;;;1.35;;
55641;SDS011;41509;53.108;6.100;2023-08-21T16:44:21;5.45;;;1.30;;
55641;SDS011;41509;53.108;6.100;2023-08-21T16:46:47;3.00;;;1.20;;
55641;SDS011;41509;53.108;6.100;2023-08-21T16:49:13;3.10;;;1.15;;
55641;SDS011;41509;53.108;6.100;2023-08-21T16:51:39;5.20;;;1.30;;
55641;SDS011;41509;53.108;6.100;2023-08-21T16:54:05;3.10;;;1.23;;
55641;SDS011;41509;53.108;6.100;2023-08-21T16:56:31;4.03;;;1.20;;
55641;SDS011;41509;53.108;6.100;2023-08-21T16:58:57;2.95;;;1.35;;
55641;SDS011;41509;53.108;6.100;2023-08-21T17:01:22;4.15;;;1.25;;
55641;SDS011;41509;53.108;6.100;2023-08-21T17:03:50;8.32;;;1.15;;
55641;SDS011;41509;53.108;6.100;2023-08-21T17:06:16;3.67;;;1.13;;
55641;SDS011;41509;53.108;6.100;2023-08-21T17:08:42;4.68;;;1.27;;
55641;SDS011;41509;53.108;6.100;2023-08-21T17:11:08;7.40;;;1.70;;
55641;SDS011;41509;53.108;6.100;2023-08-21T17:13:33;2.67;;;0.88;;
55641;SDS011;41509;53.108;6.100;2023-08-21T17:15:59;5.07;;;1.10;;
55641;SDS011;41509;53.108;6.100;2023-08-21T17:18:25;3.80;;;0.93;;
55641;SDS011;41509;53.108;6.100;2023-08-21T17:20:51;3.47;;;1.00;;
55641;SDS011;41509;53.108;6.100;2023-08-21T17:23:17;3.47;;;1.08;;
55641;SDS011;41509;53.108;6.100;2023-08-21T17:25:43;1.88;;;0.93;;
55641;SDS011;41509;53.108;6.100;2023-08-21T17:30:37;4.22;;;0.80;;
55641;SDS011;41509;53.108;6.100;2023-08-21T17:33:02;4.43;;;1.40;;
55641;SDS011;41509;53.108;6.100;2023-08-21T17:35:29;3.97;;;1.20;;
55641;SDS011;41509;53.108;6.100;2023-08-21T17:37:55;2.90;;;1.00;;
55641;SDS011;41509;53.108;6.100;2023-08-21T17:40:23;3.20;;;0.90;;
55641;SDS011;41509;53.108;6.100;2023-08-21T17:42:49;2.75;;;1.00;;
55641;SDS011;41509;53.108;6.100;2023-08-21T17:45:15;3.10;;;1.20;;
55641;SDS011;41509;53.108;6.100;2023-08-21T17:50:06;7.97;;;1.00;;
55641;SDS011;41509;53.108;6.100;2023-08-21T17:52:32;7.03;;;1.10;;
55641;SDS011;41509;53.108;6.100;2023-08-21T17:55:00;4.35;;;1.20;;
55641;SDS011;41509;53.108;6.100;2023-08-21T17:57:26;6.45;;;1.42;;
55641;SDS011;41509;53.108;6.100;2023-08-21T17:59:52;8.38;;;2.50;;
55641;SDS011;41509;53.108;6.100;2023-08-21T18:02:20;6.65;;;1.90;;
55641;SDS011;41509;53.108;6.100;2023-08-21T18:04:46;5.30;;;1.60;;
55641;SDS011;41509;53.108;6.100;2023-08-21T18:09:37;5.72;;;1.45;;
55641;SDS011;41509;53.108;6.100;2023-08-21T18:14:29;2.67;;;1.40;;
55641;SDS011;41509;53.108;6.100;2023-08-21T18:17:00;4.15;;;1.33;;
55641;SDS011;41509;53.108;6.100;2023-08-21T18:19:33;5.28;;;1.08;;
55641;SDS011;41509;53.108;6.100;2023-08-21T18:24:25;2.40;;;1.02;;
55641;SDS011;41509;53.108;6.100;2023-08-21T18:29:18;4.25;;;1.15;;
55641;SDS011;41509;53.108;6.100;2023-08-21T18:34:09;2.83;;;1.17;;
55641;SDS011;41509;53.108;6.100;2023-08-21T18:39:01;6.53;;;1.52;;
55641;SDS011;41509;53.108;6.100;2023-08-21T18:43:53;5.07;;;1.65;;
55641;SDS011;41509;53.108;6.100;2023-08-21T18:46:19;6.93;;;1.42;;
55641;SDS011;41509;53.108;6.100;2023-08-21T18:51:10;3.08;;;1.38;;
55641;SDS011;41509;53.108;6.100;2023-08-21T18:56:02;3.25;;;1.42;;
55641;SDS011;41509;53.108;6.100;2023-08-21T18:58:29;10.23;;;1.60;;
55641;SDS011;41509;53.108;6.100;2023-08-21T19:03:21;5.95;;;1.60;;
55641;SDS011;41509;53.108;6.100;2023-08-21T19:08:13;7.78;;;1.63;;
55641;SDS011;41509;53.108;6.100;2023-08-21T19:13:04;6.50;;;1.90;;
55641;SDS011;41509;53.108;6.100;2023-08-21T19:15:32;4.38;;;2.00;;
55641;SDS011;41509;53.108;6.100;2023-08-21T19:17:58;4.80;;;1.80;;
55641;SDS011;41509;53.108;6.100;2023-08-21T19:20:27;4.68;;;1.90;;
55641;SDS011;41509;53.108;6.100;2023-08-21T19:25:19;5.57;;;1.50;;
55641;SDS011;41509;53.108;6.100;2023-08-21T19:30:11;8.05;;;1.50;;
55641;SDS011;41509;53.108;6.100;2023-08-21T19:32:37;4.20;;;1.55;;
55641;SDS011;41509;53.108;6.100;2023-08-21T19:35:04;5.72;;;1.50;;
55641;SDS011;41509;53.108;6.100;2023-08-21T19:37:30;3.75;;;1.80;;
55641;SDS011;41509;53.108;6.100;2023-08-21T19:39:56;3.47;;;1.50;;
55641;SDS011;41509;53.108;6.100;2023-08-21T19:44:50;5.55;;;1.50;;
55641;SDS011;41509;53.108;6.100;2023-08-21T19:47:18;5.38;;;1.52;;
55641;SDS011;41509;53.108;6.100;2023-08-21T19:52:10;6.88;;;1.42;;
55641;SDS011;41509;53.108;6.100;2023-08-21T19:54:35;6.20;;;1.77;;
55641;SDS011;41509;53.108;6.100;2023-08-21T19:59:28;4.38;;;2.05;;
55641;SDS011;41509;53.108;6.100;2023-08-21T20:01:54;6.82;;;2.38;;
55641;SDS011;41509;53.108;6.100;2023-08-21T20:06:45;8.23;;;2.53;;
55641;SDS011;41509;53.108;6.100;2023-08-21T20:11:37;5.68;;;2.13;;
55641;SDS011;41509;53.108;6.100;2023-08-21T20:16:29;7.43;;;2.20;;
55641;SDS011;41509;53.108;6.100;2023-08-21T20:18:58;8.48;;;2.35;;
55641;SDS011;41509;53.108;6.100;2023-08-21T20:23:50;4.63;;;2.20;;
55641;SDS011;41509;53.108;6.100;2023-08-21T20:26:17;4.43;;;1.85;;
55641;SDS011;41509;53.108;6.100;2023-08-21T20:28:47;6.38;;;2.45;;
55641;SDS011;41509;53.108;6.100;2023-08-21T20:31:12;5.05;;;2.70;;
55641;SDS011;41509;53.108;6.100;2023-08-21T20:33:38;5.93;;;2.50;;
55641;SDS011;41509;53.108;6.100;2023-08-21T20:36:05;5.38;;;2.50;;
55641;SDS011;41509;53.108;6.100;2023-08-21T20:38:30;4.57;;;2.58;;
55641;SDS011;41509;53.108;6.100;2023-08-21T20:41:02;10.70;;;2.47;;
55641;SDS011;41509;53.108;6.100;2023-08-21T20:43:29;5.50;;;3.25;;
55641;SDS011;41509;53.108;6.100;2023-08-21T20:46:05;6.40;;;3.00;;
55641;SDS011;41509;53.108;6.100;2023-08-21T20:48:32;10.17;;;3.23;;
55641;SDS011;41509;53.108;6.100;2023-08-21T20:50:58;7.80;;;2.85;;
55641;SDS011;41509;53.108;6.100;2023-08-21T20:53:24;8.43;;;2.92;;
55641;SDS011;41509;53.108;6.100;2023-08-21T20:55:54;4.18;;;2.47;;
55641;SDS011;41509;53.108;6.100;2023-08-21T20:58:21;7.88;;;3.05;;
55641;SDS011;41509;53.108;6.100;2023-08-21T21:00:51;6.43;;;3.00;;
55641;SDS011;41509;53.108;6.100;2023-08-21T21:03:19;7.18;;;2.70;;
55641;SDS011;41509;53.108;6.100;2023-08-21T21:05:45;5.40;;;2.90;;
55641;SDS011;41509;53.108;6.100;2023-08-21T21:08:11;7.18;;;2.88;;
55641;SDS011;41509;53.108;6.100;2023-08-21T21:10:37;6.40;;;3.33;;
55641;SDS011;41509;53.108;6.100;2023-08-21T21:13:05;8.38;;;3.20;;
55641;SDS011;41509;53.108;6.100;2023-08-21T21:15:34;6.13;;;2.83;;
55641;SDS011;41509;53.108;6.100;2023-08-21T21:18:00;9.15;;;3.60;;
55641;SDS011;41509;53.108;6.100;2023-08-21T21:20:26;8.88;;;3.17;;
55641;SDS011;41509;53.108;6.100;2023-08-21T21:22:52;5.95;;;3.78;;
55641;SDS011;41509;53.108;6.100;2023-08-21T21:25:18;5.82;;;3.00;;
55641;SDS011;41509;53.108;6.100;2023-08-21T21:27:43;10.35;;;2.90;;
55641;SDS011;41509;53.108;6.100;2023-08-21T21:30:09;6.25;;;3.10;;
55641;SDS011;41509;53.108;6.100;2023-08-21T21:32:37;6.05;;;3.40;;
55641;SDS011;41509;53.108;6.100;2023-08-21T21:35:03;9.80;;;3.67;;
55641;SDS011;41509;53.108;6.100;2023-08-21T21:37:29;9.07;;;2.97;;
55641;SDS011;41509;53.108;6.100;2023-08-21T21:39:57;9.68;;;3.08;;
55641;SDS011;41509;53.108;6.100;2023-08-21T21:42:23;6.75;;;2.78;;
55641;SDS011;41509;53.108;6.100;2023-08-21T21:44:52;4.90;;;2.80;;
55641;SDS011;41509;53.108;6.100;2023-08-21T21:47:18;5.10;;;3.08;;
55641;SDS011;41509;53.108;6.100;2023-08-21T21:49:44;6.40;;;3.38;;
55641;SDS011;41509;53.108;6.100;2023-08-21T21:52:10;5.43;;;2.45;;
55641;SDS011;41509;53.108;6.100;2023-08-21T21:54:35;5.68;;;2.88;;
55641;SDS011;41509;53.108;6.100;2023-08-21T21:57:01;4.45;;;2.55;;
55641;SDS011;41509;53.108;6.100;2023-08-21T21:59:28;6.35;;;3.22;;
55641;SDS011;41509;53.108;6.100;2023-08-21T22:01:56;6.88;;;3.10;;
55641;SDS011;41509;53.108;6.100;2023-08-21T22:04:32;7.63;;;3.58;;
55641;SDS011;41509;53.108;6.100;2023-08-21T22:06:57;5.35;;;3.10;;
55641;SDS011;41509;53.108;6.100;2023-08-21T22:09:23;7.47;;;3.10;;
55641;SDS011;41509;53.108;6.100;2023-08-21T22:11:50;5.28;;;3.13;;
55641;SDS011;41509;53.108;6.100;2023-08-21T22:14:15;10.50;;;3.35;;
55641;SDS011;41509;53.108;6.100;2023-08-21T22:16:42;7.70;;;3.42;;
55641;SDS011;41509;53.108;6.100;2023-08-21T22:19:10;6.57;;;3.92;;
55641;SDS011;41509;53.108;6.100;2023-08-21T22:21:36;8.02;;;3.63;;
55641;SDS011;41509;53.108;6.100;2023-08-21T22:24:02;9.02;;;3.63;;
55641;SDS011;41509;53.108;6.100;2023-08-21T22:26:28;7.30;;;2.90;;
55641;SDS011;41509;53.108;6.100;2023-08-21T22:28:54;6.90;;;3.35;;
55641;SDS011;41509;53.108;6.100;2023-08-21T22:31:19;5.35;;;3.22;;
55641;SDS011;41509;53.108;6.100;2023-08-21T22:33:45;7.18;;;3.30;;
55641;SDS011;41509;53.108;6.100;2023-08-21T22:36:13;8.90;;;3.88;;
55641;SDS011;41509;53.108;6.100;2023-08-21T22:38:39;6.28;;;3.05;;
55641;SDS011;41509;53.108;6.100;2023-08-21T22:41:05;4.90;;;3.28;;
55641;SDS011;41509;53.108;6.100;2023-08-21T22:43:34;5.45;;;2.97;;
55641;SDS011;41509;53.108;6.100;2023-08-21T22:46:02;6.40;;;3.67;;
55641;SDS011;41509;53.108;6.100;2023-08-21T22:48:31;7.30;;;3.15;;
55641;SDS011;41509;53.108;6.100;2023-08-21T22:51:03;5.95;;;2.80;;
55641;SDS011;41509;53.108;6.100;2023-08-21T22:53:30;7.82;;;3.35;;
55641;SDS011;41509;53.108;6.100;2023-08-21T22:55:56;7.28;;;3.92;;
55641;SDS011;41509;53.108;6.100;2023-08-21T22:58:24;9.35;;;3.92;;
55641;SDS011;41509;53.108;6.100;2023-08-21T23:00:50;5.75;;;3.40;;
55641;SDS011;41509;53.108;6.100;2023-08-21T23:03:16;7.68;;;3.78;;
55641;SDS011;41509;53.108;6.100;2023-08-21T23:05:44;10.48;;;3.30;;
55641;SDS011;41509;53.108;6.100;2023-08-21T23:08:16;9.75;;;3.85;;
55641;SDS011;41509;53.108;6.100;2023-08-21T23:10:42;6.38;;;3.38;;
55641;SDS011;41509;53.108;6.100;2023-08-21T23:13:08;5.90;;;3.60;;
55641;SDS011;41509;53.108;6.100;2023-08-21T23:15:34;7.72;;;3.15;;
55641;SDS011;41509;53.108;6.100;2023-08-21T23:17:59;8.27;;;3.70;;
55641;SDS011;41509;53.108;6.100;2023-08-21T23:20:25;9.52;;;3.47;;
55641;SDS011;41509;53.108;6.100;2023-08-21T23:22:51;10.10;;;3.65;;
55641;SDS011;41509;53.108;6.100;2023-08-21T23:25:27;11.55;;;3.85;;
55641;SDS011;41509;53.108;6.100;2023-08-21T23:27:53;8.90;;;4.53;;
55641;SDS011;41509;53.108;6.100;2023-08-21T23:30:19;7.63;;;3.70;;
55641;SDS011;41509;53.108;6.100;2023-08-21T23:32:45;8.57;;;3.42;;
55641;SDS011;41509;53.108;6.100;2023-08-21T23:35:13;10.15;;;3.97;;
55641;SDS011;41509;53.108;6.100;2023-08-21T23:37:39;10.98;;;4.50;;
55641;SDS011;41509;53.108;6.100;2023-08-21T23:40:04;10.65;;;4.65;;
55641;SDS011;41509;53.108;6.100;2023-08-21T23:42:33;11.70;;;4.68;;
55641;SDS011;41509;53.108;6.100;2023-08-21T23:44:59;10.93;;;4.65;;
55641;SDS011;41509;53.108;6.100;2023-08-21T23:47:25;6.55;;;3.40;;
55641;SDS011;41509;53.108;6.100;2023-08-21T23:49:51;6.57;;;3.10;;
55641;SDS011;41509;53.108;6.100;2023-08-21T23:52:17;7.93;;;3.33;;
55641;SDS011;41509;53.108;6.100;2023-08-21T23:54:43;8.07;;;3.47;;
55641;SDS011;41509;53.108;6.100;2023-08-21T23:57:09;11.77;;;4.15;;
55641;SDS011;41509;53.108;6.100;2023-08-21T23:59:34;7.90;;;3.17;;
